Time;durP1;ratioP1;P1;durP2;ratioP2;P2;SDS_P1;SDS_P2;PMS_P1;PMS_P2;Temp;Humidity;BMP_temperature;BMP_pressure;BME280_temperature;BME280_humidity;BME280_pressure;Samples;Min_cycle;Max_cycle;Signal;HPM_P1;HPM_P2
2023/09/22 00:00:36;;;;;;;;;4.00;4.00;;;;;21.24;100.00;99438.13;2114816;27;46554;-59
2023/09/22 00:01:36;;;;;;;;;0.00;0.00;;;;;21.24;100.00;99435.44;2114469;27;46556;-59
2023/09/22 00:02:38;;;;;;;;;0.00;0.00;;;;;21.25;100.00;99439.84;2114657;27;46543;-59
2023/09/22 00:03:38;;;;;;;;;0.75;0.00;;;;;21.23;100.00;99439.97;2114583;27;46348;-60
2023/09/22 00:04:39;;;;;;;;;0.33;0.33;;;;;21.22;100.00;99438.25;2114288;27;46325;-60
2023/09/22 00:05:39;;;;;;;;;0.00;0.00;;;;;21.22;100.00;99448.19;2114310;27;46430;-59
2023/09/22 00:06:41;;;;;;;;;0.00;0.00;;;;;21.22;100.00;99442.81;2105180;28;46247;-59
2023/09/22 00:07:42;;;;;;;;;0.00;0.00;;;;;21.18;100.00;99447.59;2104969;27;46724;-59
2023/09/22 00:08:42;;;;;;;;;0.00;0.00;;;;;21.23;100.00;99441.81;2114195;27;46489;-59
2023/09/22 00:09:43;;;;;;;;;0.00;0.00;;;;;21.22;100.00;99440.09;2112493;27;46845;-59
2023/09/22 00:10:43;;;;;;;;;0.00;0.00;;;;;21.19;100.00;99446.59;2105122;28;46783;-60
2023/09/22 00:11:43;;;;;;;;;0.00;0.00;;;;;21.20;100.00;99450.16;2105374;28;46164;-60
2023/09/22 00:12:45;;;;;;;;;0.33;0.33;;;;;21.07;100.00;99444.94;2114424;27;46227;-59
2023/09/22 00:13:45;;;;;;;;;0.25;0.00;;;;;21.05;100.00;99450.47;2114112;27;45792;-58
2023/09/22 00:14:46;;;;;;;;;0.00;0.00;;;;;21.04;100.00;99450.59;2113579;27;46249;-59
2023/09/22 00:15:46;;;;;;;;;0.00;0.00;;;;;21.03;100.00;99441.66;2114246;27;46641;-59
2023/09/22 00:16:46;;;;;;;;;0.00;0.00;;;;;21.02;100.00;99445.34;2114632;27;46553;-59
2023/09/22 00:17:47;;;;;;;;;0.00;0.00;;;;;21.01;100.00;99446.34;2113351;27;45548;-59
2023/09/22 00:18:47;;;;;;;;;0.00;0.00;;;;;21.00;100.00;99444.63;2114636;27;46329;-60
2023/09/22 00:19:48;;;;;;;;;0.00;0.00;;;;;21.00;100.00;99436.53;2114365;27;46453;-59
2023/09/22 00:20:48;;;;;;;;;0.00;0.00;;;;;20.98;100.00;99441.22;2114690;27;46322;-60
2023/09/22 00:21:49;;;;;;;;;0.00;0.00;;;;;20.97;100.00;99436.81;2114306;27;46747;-60
2023/09/22 00:22:49;;;;;;;;;0.00;0.00;;;;;20.93;100.00;99439.88;2114196;27;46662;-58
2023/09/22 00:23:49;;;;;;;;;0.00;0.00;;;;;20.91;100.00;99437.31;2113880;27;46677;-59
2023/09/22 00:24:50;;;;;;;;;0.00;0.00;;;;;20.92;100.00;99438.16;2113967;27;46816;-60
2023/09/22 00:25:51;;;;;;;;;0.00;0.00;;;;;20.94;100.00;99439.75;2113765;27;46092;-59
2023/09/22 00:26:51;;;;;;;;;0.00;0.00;;;;;20.91;100.00;99442.69;2114520;27;46531;-59
2023/09/22 00:27:52;;;;;;;;;0.00;0.00;;;;;20.96;100.00;99435.09;2114187;27;46334;-60
2023/09/22 00:28:52;;;;;;;;;0.00;0.00;;;;;20.90;100.00;99435.59;2114281;27;46874;-59
2023/09/22 00:29:53;;;;;;;;;0.00;0.00;;;;;20.83;100.00;99432.59;2113252;27;46518;-59
2023/09/22 00:30:53;;;;;;;;;0.00;0.00;;;;;20.82;100.00;99440.78;2114053;27;46320;-60
2023/09/22 00:31:53;;;;;;;;;2.00;0.00;;;;;20.84;100.00;99434.28;2114248;27;46513;-60
2023/09/22 00:32:54;;;;;;;;;0.00;0.00;;;;;20.88;100.00;99439.41;2105460;27;46909;-58
2023/09/22 00:33:54;;;;;;;;;0.00;0.00;;;;;20.82;100.00;99443.47;2108250;27;46645;-59
2023/09/22 00:34:54;;;;;;;;;0.00;0.00;;;;;20.77;100.00;99441.16;2105623;28;45823;-59
2023/09/22 00:36:01;;;;;;;;;0.00;0.00;;;;;20.81;100.00;99439.06;2105091;28;46949;-58
2023/09/22 00:37:02;;;;;;;;;0.75;0.75;;;;;20.75;100.00;99453.06;2114420;27;46281;-59
2023/09/22 00:38:03;;;;;;;;;0.00;0.00;;;;;20.70;100.00;99450.75;2114412;27;46374;-59
2023/09/22 00:39:04;;;;;;;;;0.00;0.00;;;;;20.71;100.00;99451.59;2113995;27;46286;-61
2023/09/22 00:40:05;;;;;;;;;0.00;0.00;;;;;20.70;100.00;99452.59;2114228;27;46270;-60
2023/09/22 00:41:06;;;;;;;;;0.00;0.00;;;;;20.68;100.00;99452.72;2114378;27;46635;-59
2023/09/22 00:42:09;;;;;;;;;0.00;0.00;;;;;20.86;100.00;99447.66;2114059;27;46755;-60
2023/09/22 00:43:11;;;;;;;;;0.00;0.00;;;;;20.91;100.00;99452.63;2113907;27;45761;-59
2023/09/22 00:44:11;;;;;;;;;0.00;0.00;;;;;20.90;100.00;99449.09;2113580;27;46372;-60
2023/09/22 00:45:14;;;;;;;;;0.00;0.00;;;;;20.89;100.00;99455.47;2112457;27;46735;-58
2023/09/22 00:46:21;;;;;;;;;0.00;0.00;;;;;20.83;100.00;99443.38;2114308;27;46694;-59
2023/09/22 00:47:22;;;;;;;;;0.00;0.00;;;;;20.79;100.00;99451.81;2114442;27;46661;-61
2023/09/22 00:48:27;;;;;;;;;0.00;0.00;;;;;20.79;100.00;99443.75;2114399;27;46280;-59
2023/09/22 00:49:29;;;;;;;;;0.00;0.00;;;;;20.78;100.00;99439.34;2113254;27;46536;-59
2023/09/22 00:50:30;;;;;;;;;0.00;0.00;;;;;20.79;100.00;99444.59;2119867;27;46710;-59
2023/09/22 00:51:31;;;;;;;;;0.00;0.00;;;;;20.79;100.00;99444.59;2114226;27;46501;-59
2023/09/22 00:52:31;;;;;;;;;0.00;0.00;;;;;20.81;100.00;99445.31;2114240;27;46168;-60
2023/09/22 00:53:36;;;;;;;;;0.00;0.00;;;;;20.86;100.00;99442.25;2114008;27;46701;-58
2023/09/22 00:54:38;;;;;;;;;0.00;0.00;;;;;20.85;100.00;99441.41;2113286;27;46999;-58
2023/09/22 00:55:38;;;;;;;;;0.00;0.00;;;;;20.84;100.00;99442.38;2104985;28;46561;-60
2023/09/22 00:56:39;;;;;;;;;0.00;0.00;;;;;20.82;100.00;99441.63;2104936;28;45500;-59
2023/09/22 00:57:40;;;;;;;;;0.25;0.00;;;;;20.82;100.00;99447.03;2114956;27;46648;-59
2023/09/22 00:58:41;;;;;;;;;0.00;0.00;;;;;20.94;100.00;99446.97;2109993;27;46320;-60
2023/09/22 00:59:42;;;;;;;;;0.00;0.00;;;;;20.95;100.00;99452.22;2101200;27;47089;-59
2023/09/22 01:00:47;;;;;;;;;0.00;0.00;;;;;20.97;100.00;99447.59;2114552;27;46814;-60
2023/09/22 01:01:47;;;;;;;;;0.00;0.00;;;;;20.99;100.00;99445.63;2105988;27;46714;-61
2023/09/22 01:02:48;;;;;;;;;0.00;0.00;;;;;21.00;100.00;99446.47;2113644;27;46557;-59
2023/09/22 01:03:48;;;;;;;;;0.00;0.00;;;;;20.98;100.00;99438.50;2104144;28;47119;-61
2023/09/22 01:04:48;;;;;;;;;0.00;0.00;;;;;20.98;100.00;99443.91;2104429;28;46795;-60
2023/09/22 01:05:50;;;;;;;;;0.00;0.00;;;;;20.99;100.00;99442.06;2111944;27;46405;-61
2023/09/22 01:06:50;;;;;;;;;0.00;0.00;;;;;20.95;100.00;99435.19;2111258;27;46769;-59
2023/09/22 01:07:51;;;;;;;;;0.00;0.00;;;;;20.94;100.00;99445.13;2110951;27;46283;-58
2023/09/22 01:08:51;;;;;;;;;0.00;0.00;;;;;20.82;100.00;99443.47;2108670;27;46609;-59
2023/09/22 01:09:51;;;;;;;;;0.00;0.00;;;;;20.78;100.00;99436.63;2117234;27;46423;-59
2023/09/22 01:10:52;;;;;;;;;0.00;0.00;;;;;20.86;100.00;99443.09;2092064;28;45764;-60
2023/09/22 01:11:52;;;;;;;;;0.00;0.00;;;;;20.85;100.00;99432.44;2091812;28;46681;-60
2023/09/22 01:12:54;;;;;;;;;0.00;0.00;;;;;20.76;100.00;99442.16;2113800;27;46722;-60
2023/09/22 01:13:54;;;;;;;;;1.25;0.00;;;;;20.73;100.00;99445.13;2115942;27;47019;-60
2023/09/22 01:14:54;;;;;;;;;0.00;0.00;;;;;20.73;100.00;99452.34;2117189;27;46625;-60
2023/09/22 01:15:56;;;;;;;;;0.00;0.00;;;;;20.72;100.00;99445.25;2111099;27;46606;-60
2023/09/22 01:16:56;;;;;;;;;0.00;0.00;;;;;20.72;100.00;99443.41;2104650;28;46414;-60
2023/09/22 01:17:56;;;;;;;;;0.00;0.00;;;;;20.73;100.00;99444.28;2104863;28;46292;-61
2023/09/22 01:18:57;;;;;;;;;0.00;0.00;;;;;20.73;100.00;99447.81;2113802;27;46039;-58
2023/09/22 01:19:58;;;;;;;;;0.00;0.00;;;;;20.73;100.00;99447.81;2114027;27;46706;-60
2023/09/22 01:20:59;;;;;;;;;0.00;0.00;;;;;20.72;100.00;99445.25;2114255;27;46823;-59
2023/09/22 01:21:59;;;;;;;;;0.00;0.00;;;;;20.70;100.00;99437.25;2113701;27;46295;-60
2023/09/22 01:22:59;;;;;;;;;0.00;0.00;;;;;20.69;100.00;99440.94;2112064;27;46815;-60
2023/09/22 01:24:00;;;;;;;;;0.00;0.00;;;;;20.70;100.00;99439.09;2111552;27;46360;-59
2023/09/22 01:25:01;;;;;;;;;0.00;0.00;;;;;20.70;100.00;99439.09;2114816;27;46202;-60
2023/09/22 01:26:01;;;;;;;;;0.00;0.00;;;;;20.81;100.00;99431.84;2122437;27;46468;-60
2023/09/22 01:27:03;;;;;;;;;0.00;0.00;;;;;20.86;100.00;99437.72;2109640;27;45933;-60
2023/09/22 01:28:04;;;;;;;;;0.00;0.00;;;;;20.89;100.00;99433.88;2114044;27;46551;-60
2023/09/22 01:29:06;;;;;;;;;0.00;0.00;;;;;20.92;100.00;99432.78;2113840;27;46049;-60
2023/09/22 01:30:09;;;;;;;;;0.00;0.00;;;;;20.86;100.00;99435.00;2113725;27;47093;-59
2023/09/22 01:31:10;;;;;;;;;0.00;0.00;;;;;20.85;100.00;99429.75;2113335;27;46611;-59
2023/09/22 01:32:11;;;;;;;;;0.00;0.00;;;;;20.85;100.00;99421.66;2112886;27;46323;-59
2023/09/22 01:33:11;;;;;;;;;0.00;0.00;;;;;20.88;100.00;99431.31;2113805;27;46348;-59
2023/09/22 01:34:11;;;;;;;;;0.00;0.00;;;;;20.89;100.00;99430.34;2111548;27;46661;-59
2023/09/22 01:35:12;;;;;;;;;0.00;0.00;;;;;20.89;100.00;99433.03;2113664;27;46379;-59
2023/09/22 01:36:13;;;;;;;;;0.25;0.00;;;;;20.90;100.00;99429.34;2113923;27;46522;-59
2023/09/22 01:37:14;;;;;;;;;0.00;0.00;;;;;20.89;100.00;99422.25;2095840;28;46304;-59
2023/09/22 01:38:18;;;;;;;;;0.00;0.00;;;;;20.90;100.00;99421.25;2087059;28;46107;-59
2023/09/22 01:39:18;;;;;;;;;0.00;0.00;;;;;20.89;100.00;99419.56;2103537;28;46438;-58
2023/09/22 01:40:18;;;;;;;;;0.00;0.00;;;;;20.76;100.00;99431.38;2113098;27;46836;-59
2023/09/22 01:41:19;;;;;;;;;0.00;0.00;;;;;20.73;100.00;99418.16;2113584;27;46856;-60
2023/09/22 01:42:19;;;;;;;;;0.00;0.00;;;;;20.71;100.00;99433.63;2113621;27;46389;-60
2023/09/22 01:43:19;;;;;;;;;0.00;0.00;;;;;20.69;100.00;99429.31;2114032;27;46575;-59
2023/09/22 01:44:20;;;;;;;;;0.00;0.00;;;;;20.66;100.00;99430.44;2113949;27;46527;-59
2023/09/22 01:45:20;;;;;;;;;0.00;0.00;;;;;20.67;100.00;99431.28;2114018;27;44907;-59
2023/09/22 01:46:20;;;;;;;;;0.00;0.00;;;;;20.67;100.00;99434.84;2112159;27;46164;-59
2023/09/22 01:47:21;;;;;;;;;0.00;0.00;;;;;20.76;100.00;99430.53;2114711;27;46341;-58
2023/09/22 01:48:21;;;;;;;;;0.00;0.00;;;;;20.68;100.00;99433.84;2110959;27;47081;-58
2023/09/22 01:49:22;;;;;;;;;0.00;0.00;;;;;20.71;100.00;99433.63;2109966;27;46663;-59
2023/09/22 01:50:22;;;;;;;;;0.00;0.00;;;;;20.81;100.00;99439.06;2113631;27;46336;-59
2023/09/22 01:51:23;;;;;;;;;0.00;0.00;;;;;20.84;100.00;99436.13;2117015;27;46205;-59
2023/09/22 01:52:24;;;;;;;;;0.00;0.00;;;;;20.85;100.00;99436.00;2109148;27;45710;-60
2023/09/22 01:53:25;;;;;;;;;0.00;0.00;;;;;20.84;100.00;99434.28;2104976;27;46859;-60
2023/09/22 01:54:26;;;;;;;;;0.00;0.00;;;;;20.86;100.00;99435.00;2112887;27;46783;-60
2023/09/22 01:55:26;;;;;;;;;0.00;0.00;;;;;20.88;100.00;99442.97;2113476;27;46262;-60
2023/09/22 01:56:27;;;;;;;;;0.00;0.00;;;;;20.90;100.00;99442.84;2102852;28;46421;-59
2023/09/22 01:57:27;;;;;;;;;0.00;0.00;;;;;20.89;100.00;99449.22;2104740;28;46931;-59
2023/09/22 01:58:27;;;;;;;;;0.67;0.67;;;;;20.89;100.00;99435.72;2113906;27;46841;-60
2023/09/22 01:59:28;;;;;;;;;0.00;0.00;;;;;20.89;100.00;99441.13;2113390;27;45859;-59
2023/09/22 02:00:28;;;;;;;;;0.00;0.00;;;;;20.89;100.00;99438.44;2104576;28;46282;-59
2023/09/22 02:01:28;;;;;;;;;0.00;0.00;;;;;20.89;100.00;99446.53;2096323;28;46544;-59
2023/09/22 02:02:30;;;;;;;;;0.00;0.00;;;;;20.90;100.00;99442.84;2104569;28;46845;-59
2023/09/22 02:03:30;;;;;;;;;0.00;0.00;;;;;20.86;100.00;99436.84;2113122;27;46955;-59
2023/09/22 02:04:31;;;;;;;;;0.00;0.00;;;;;20.86;100.00;99440.41;2112733;27;46079;-59
2023/09/22 02:05:31;;;;;;;;;0.00;0.00;;;;;20.86;100.00;99443.09;2113335;27;46827;-60
2023/09/22 02:06:32;;;;;;;;;0.33;0.00;;;;;20.89;100.00;99438.44;2113162;27;46394;-56
2023/09/22 02:07:32;;;;;;;;;0.00;0.00;;;;;20.89;100.00;99438.44;2112987;27;46652;-61
2023/09/22 02:08:33;;;;;;;;;1.00;0.00;;;;;20.90;100.00;99442.84;2112973;27;45490;-60
2023/09/22 02:09:34;;;;;;;;;0.00;0.00;;;;;20.90;100.00;99438.28;2114149;27;45560;-59
2023/09/22 02:10:34;;;;;;;;;0.00;0.00;;;;;20.83;100.00;99432.59;2104755;28;46626;-61
2023/09/22 02:11:35;;;;;;;;;0.00;0.00;;;;;20.89;100.00;99441.97;2103281;27;45652;-59
2023/09/22 02:12:38;;;;;;;;;0.00;0.00;;;;;20.90;100.00;99441.00;2113383;27;46265;-62
2023/09/22 02:13:40;;;;;;;;;0.00;0.00;;;;;20.89;100.00;99439.28;2114016;27;46583;-63
2023/09/22 02:14:40;;;;;;;;;0.00;0.00;;;;;20.90;100.00;99434.75;2113520;27;46894;-59
2023/09/22 02:15:40;;;;;;;;;0.00;0.00;;;;;20.92;100.00;99439.00;2113395;27;45959;-60
2023/09/22 02:16:41;;;;;;;;;0.33;0.00;;;;;20.91;100.00;99442.69;2113596;27;46286;-59
2023/09/22 02:17:44;;;;;;;;;0.75;0.00;;;;;20.92;100.00;99449.81;2113160;27;46270;-60
2023/09/22 02:18:44;;;;;;;;;0.00;0.00;;;;;20.91;100.00;99445.41;2113482;27;46515;-60
2023/09/22 02:19:45;;;;;;;;;0.00;0.00;;;;;20.89;100.00;99447.38;2104963;28;45944;-60
2023/09/22 02:20:45;;;;;;;;;0.67;0.67;;;;;20.91;100.00;99452.63;2095595;28;46553;-60
2023/09/22 02:21:46;;;;;;;;;1.67;0.00;;;;;20.90;100.00;99443.69;2096053;28;46497;-60
2023/09/22 02:22:47;;;;;;;;;0.00;0.00;;;;;20.87;100.00;99443.97;2113979;27;46894;-60
2023/09/22 02:23:48;;;;;;;;;0.00;0.00;;;;;20.86;100.00;99443.09;2113025;27;46266;-60
2023/09/22 02:24:48;;;;;;;;;0.00;0.00;;;;;20.89;100.00;99443.81;2113506;27;47702;-59
2023/09/22 02:25:48;;;;;;;;;0.00;0.00;;;;;20.87;100.00;99438.56;2113652;27;46256;-59
2023/09/22 02:26:49;;;;;;;;;0.00;0.00;;;;;20.85;100.00;99438.69;2113520;27;46420;-59
2023/09/22 02:27:52;;;;;;;;;0.00;0.00;;;;;20.87;100.00;99443.97;2103520;28;46428;-59
2023/09/22 02:28:53;;;;;;;;;0.00;0.00;;;;;20.84;100.00;99447.78;2096781;28;46275;-57
2023/09/22 02:29:54;;;;;;;;;0.25;0.00;;;;;20.83;100.00;99439.78;2108993;27;46323;-59
2023/09/22 02:30:54;;;;;;;;;0.00;0.00;;;;;20.84;100.00;99447.78;2104530;28;46361;-59
2023/09/22 02:31:54;;;;;;;;;0.00;0.00;;;;;20.84;100.00;99442.38;2095932;28;46260;-60
2023/09/22 02:32:55;;;;;;;;;0.00;0.00;;;;;20.85;100.00;99444.09;2104455;28;46202;-60
2023/09/22 02:33:55;;;;;;;;;0.00;0.00;;;;;20.83;100.00;99447.88;2113557;27;46717;-60
2023/09/22 02:34:57;;;;;;;;;0.00;0.00;;;;;20.82;100.00;99446.16;2113353;27;45579;-60
2023/09/22 02:35:59;;;;;;;;;0.00;0.00;;;;;20.82;100.00;99447.03;2113004;27;46379;-60
2023/09/22 02:36:59;;;;;;;;;0.00;0.00;;;;;20.82;100.00;99446.16;2104838;28;46537;-60
2023/09/22 02:37:59;;;;;;;;;0.33;0.33;;;;;20.79;100.00;99443.75;2110520;27;46256;-60
2023/09/22 02:39:00;;;;;;;;;1.00;1.00;;;;;20.68;100.00;99449.16;2113329;27;47359;-60
2023/09/22 02:40:01;;;;;;;;;0.00;0.00;;;;;20.72;100.00;99456.03;2113574;27;46683;-60
2023/09/22 02:41:01;;;;;;;;;0.00;0.00;;;;;20.71;100.00;99452.50;2113222;27;46907;-60
2023/09/22 02:42:02;;;;;;;;;0.00;0.00;;;;;20.66;100.00;99457.38;2113880;27;46041;-59
2023/09/22 02:43:03;;;;;;;;;0.00;0.00;;;;;20.66;100.00;99454.69;2113171;27;46710;-59
2023/09/22 02:44:06;;;;;;;;;3.33;0.00;;;;;20.66;100.00;99461.91;2112817;27;46549;-60
2023/09/22 02:45:09;;;;;;;;;0.00;0.00;;;;;20.65;100.00;99463.75;2113336;27;46854;-60
2023/09/22 02:46:09;;;;;;;;;0.00;0.00;;;;;20.72;100.00;99461.44;2115801;27;46695;-58
2023/09/22 02:47:09;;;;;;;;;0.00;0.00;;;;;20.74;100.00;99460.31;2108225;27;46307;-60
2023/09/22 02:48:10;;;;;;;;;1.67;1.33;;;;;20.74;100.00;99460.31;2108078;27;46617;-59
2023/09/22 02:49:10;;;;;;;;;8.33;7.67;;;;;20.76;100.00;99460.19;2102787;28;46471;-60
2023/09/22 02:50:15;;;;;;;;;4.00;1.00;;;;;20.75;100.00;99461.16;2095943;28;46923;-59
2023/09/22 02:51:15;;;;;;;;;0.50;0.50;;;;;20.77;100.00;99469.97;2108391;27;46333;-60
2023/09/22 02:52:15;;;;;;;;;0.00;0.00;;;;;20.68;100.00;99463.50;2113034;27;46220;-60
2023/09/22 02:53:16;;;;;;;;;0.00;0.00;;;;;20.71;100.00;99463.28;2112784;27;46205;-60
2023/09/22 02:54:16;;;;;;;;;0.00;0.00;;;;;20.63;100.00;99465.75;2113204;27;46196;-60
2023/09/22 02:55:16;;;;;;;;;0.00;0.00;;;;;20.69;100.00;99467.06;2113401;27;46194;-59
2023/09/22 02:56:17;;;;;;;;;0.00;0.00;;;;;20.70;100.00;99466.06;2113467;27;46436;-59
2023/09/22 02:57:17;;;;;;;;;0.33;0.00;;;;;20.65;100.00;99457.53;2104421;28;46462;-60
2023/09/22 02:58:17;;;;;;;;;0.00;0.00;;;;;20.68;100.00;99462.66;2104342;28;46229;-60
2023/09/22 02:59:19;;;;;;;;;0.00;0.00;;;;;20.65;100.00;99461.06;2104309;28;45427;-60
2023/09/22 03:00:20;;;;;;;;;0.00;0.00;;;;;20.68;100.00;99465.34;2104359;27;46310;-60
2023/09/22 03:01:20;;;;;;;;;0.00;0.00;;;;;20.66;100.00;99468.16;2106682;27;46603;-60
2023/09/22 03:02:21;;;;;;;;;0.00;0.00;;;;;20.66;100.00;99464.63;2104410;27;46878;-60
2023/09/22 03:03:22;;;;;;;;;0.00;0.00;;;;;20.64;100.00;99463.91;2107998;27;46613;-60
2023/09/22 03:04:22;;;;;;;;;0.00;0.00;;;;;20.61;100.00;99458.78;2114537;27;46317;-59
2023/09/22 03:05:23;;;;;;;;;0.00;0.00;;;;;20.62;100.00;99464.03;2102787;27;46277;-58
2023/09/22 03:06:23;;;;;;;;;0.00;0.00;;;;;20.63;100.00;99457.66;2088768;28;46575;-59
2023/09/22 03:07:23;;;;;;;;;0.00;0.00;;;;;20.62;100.00;99453.25;2102910;28;46568;-58
2023/09/22 03:08:24;;;;;;;;;0.00;0.00;;;;;20.60;100.00;99457.91;2113054;27;46376;-59
2023/09/22 03:09:24;;;;;;;;;0.00;0.00;;;;;20.61;100.00;99456.06;2112967;27;46346;-59
2023/09/22 03:10:25;;;;;;;;;0.00;0.00;;;;;20.58;100.00;99454.47;2106114;27;46216;-59
2023/09/22 03:11:25;;;;;;;;;0.00;0.00;;;;;20.60;100.00;99449.81;2112626;27;46763;-59
2023/09/22 03:12:25;;;;;;;;;0.00;0.00;;;;;20.53;100.00;99454.00;2109115;27;48171;-60
2023/09/22 03:13:26;;;;;;;;;0.00;0.00;;;;;20.52;100.00;99455.00;2105034;28;46533;-60
2023/09/22 03:14:26;;;;;;;;;0.00;0.00;;;;;20.51;100.00;99455.97;2107912;27;46303;-59
2023/09/22 03:15:27;;;;;;;;;0.00;0.00;;;;;20.50;100.00;99460.50;2113570;27;46628;-60
2023/09/22 03:16:27;;;;;;;;;0.00;0.00;;;;;20.51;100.00;99455.97;2113399;27;46349;-60
2023/09/22 03:17:27;;;;;;;;;0.00;0.00;;;;;20.52;100.00;99453.16;2099002;28;46874;-59
2023/09/22 03:18:28;;;;;;;;;0.00;0.00;;;;;20.51;100.00;99447.88;2095677;28;46439;-60
2023/09/22 03:19:28;;;;;;;;;1.00;0.00;;;;;20.48;100.00;99449.00;2111520;27;44949;-60
2023/09/22 03:20:29;;;;;;;;;1.00;0.33;;;;;20.47;100.00;99449.13;2098976;28;46607;-60
2023/09/22 03:21:29;;;;;;;;;0.00;0.00;;;;;20.49;100.00;99449.84;2095892;28;46586;-60
2023/09/22 03:22:29;;;;;;;;;0.00;0.00;;;;;20.45;100.00;99449.22;2102723;28;46963;-59
2023/09/22 03:23:30;;;;;;;;;0.00;0.00;;;;;20.51;100.00;99451.44;2112778;27;46353;-61
2023/09/22 03:24:30;;;;;;;;;0.00;0.00;;;;;20.51;100.00;99451.44;2111274;27;46355;-61
2023/09/22 03:25:30;;;;;;;;;0.00;0.00;;;;;20.51;100.00;99448.75;2113445;27;46687;-61
2023/09/22 03:26:31;;;;;;;;;0.00;0.00;;;;;20.50;100.00;99447.03;2113028;27;46278;-61
2023/09/22 03:27:34;;;;;;;;;0.00;0.00;;;;;20.51;100.00;99447.88;2102888;28;45511;-60
2023/09/22 03:28:34;;;;;;;;;0.00;0.00;;;;;20.51;100.00;99455.97;2099158;27;46837;-59
2023/09/22 03:29:34;;;;;;;;;0.00;0.00;;;;;20.51;100.00;99453.28;2113123;27;46488;-59
2023/09/22 03:30:35;;;;;;;;;0.00;0.00;;;;;20.52;100.00;99452.28;2113449;27;46789;-59
2023/09/22 03:31:36;;;;;;;;;0.00;0.00;;;;;20.54;100.00;99448.47;2113410;27;46537;-59
2023/09/22 03:32:39;;;;;;;;;0.00;0.00;;;;;20.55;100.00;99454.72;2113540;27;46367;-59
2023/09/22 03:33:42;;;;;;;;;0.00;0.00;;;;;20.57;100.00;99453.59;2107848;27;46687;-59
2023/09/22 03:34:42;;;;;;;;;0.00;0.00;;;;;20.55;100.00;99452.88;2112012;27;46566;-59
2023/09/22 03:35:42;;;;;;;;;0.00;0.00;;;;;20.56;100.00;99456.44;2106787;27;46272;-59
2023/09/22 03:36:43;;;;;;;;;0.00;0.00;;;;;20.56;100.00;99459.97;2113394;27;46855;-60
2023/09/22 03:37:44;;;;;;;;;0.00;0.00;;;;;20.57;100.00;99453.59;2112516;27;46648;-59
2023/09/22 03:38:47;;;;;;;;;0.00;0.00;;;;;20.57;100.00;99458.16;2112001;27;46814;-58
2023/09/22 03:39:47;;;;;;;;;0.00;0.00;;;;;20.54;100.00;99456.56;2111215;27;46910;-58
2023/09/22 03:40:48;;;;;;;;;0.00;0.00;;;;;20.41;100.00;99447.75;2107854;27;46269;-58
2023/09/22 03:41:52;;;;;;;;;0.00;0.00;;;;;20.48;100.00;99456.22;2113101;27;46674;-60
2023/09/22 03:42:52;;;;;;;;;0.00;0.00;;;;;20.50;100.00;99451.56;2112723;27;47075;-60
2023/09/22 03:43:52;;;;;;;;;0.00;0.00;;;;;20.49;100.00;99448.03;2113097;27;47232;-59
2023/09/22 03:44:53;;;;;;;;;0.00;0.00;;;;;20.45;100.00;99443.84;2113759;27;46706;-60
2023/09/22 03:45:54;;;;;;;;;0.00;0.00;;;;;20.45;100.00;99443.00;2112864;27;46316;-59
2023/09/22 03:46:54;;;;;;;;;0.00;0.00;;;;;20.45;100.00;99449.22;2112341;27;45177;-59
2023/09/22 03:47:54;;;;;;;;;0.00;0.00;;;;;20.46;100.00;99442.03;2112489;27;46254;-60
2023/09/22 03:48:55;;;;;;;;;0.00;0.00;;;;;20.49;100.00;99450.72;2113359;27;46316;-60
2023/09/22 03:49:55;;;;;;;;;0.00;0.00;;;;;20.52;100.00;99453.16;2109224;27;46779;-59
2023/09/22 03:50:55;;;;;;;;;0.00;0.00;;;;;20.52;100.00;99447.75;2108148;27;46330;-59
2023/09/22 03:51:56;;;;;;;;;0.00;0.00;;;;;20.51;100.00;99448.75;2110878;27;46318;-61
2023/09/22 03:52:57;;;;;;;;;0.00;0.00;;;;;20.46;100.00;99442.88;2113160;27;46635;-59
2023/09/22 03:53:57;;;;;;;;;0.00;0.00;;;;;20.47;100.00;99451.84;2112929;27;47045;-61
2023/09/22 03:54:57;;;;;;;;;0.00;0.00;;;;;20.45;100.00;99457.31;2112884;27;46296;-60
2023/09/22 03:55:58;;;;;;;;;0.00;0.00;;;;;20.42;100.00;99446.81;2113197;27;46241;-60
2023/09/22 03:56:58;;;;;;;;;0.00;0.00;;;;;20.43;100.00;99439.56;2113871;27;46107;-60
2023/09/22 03:57:59;;;;;;;;;0.00;0.00;;;;;20.41;100.00;99436.97;2109607;27;47254;-60
2023/09/22 03:58:59;;;;;;;;;0.00;0.00;;;;;20.41;100.00;99442.38;2104116;28;46268;-59
2023/09/22 03:59:59;;;;;;;;;0.00;0.00;;;;;20.39;100.00;99441.63;2110850;27;46326;-60
2023/09/22 04:01:08;;;;;;;;;0.00;0.00;;;;;20.36;100.00;99441.03;2111002;27;46857;-60
2023/09/22 04:02:08;;;;;;;;;0.00;0.00;;;;;20.35;100.00;99447.41;2095661;28;46713;-60
2023/09/22 04:03:09;;;;;;;;;0.00;0.00;;;;;20.33;100.00;99444.84;2102301;27;46709;-59
2023/09/22 04:04:10;;;;;;;;;0.00;0.00;;;;;20.33;100.00;99452.94;2113261;27;46512;-59
2023/09/22 04:05:13;;;;;;;;;0.00;0.00;;;;;20.33;100.00;99449.34;2114065;27;46422;-59
2023/09/22 04:06:14;;;;;;;;;0.00;0.00;;;;;20.30;100.00;99445.06;2113277;27;46792;-58
2023/09/22 04:07:14;;;;;;;;;1.00;1.00;;;;;20.31;100.00;99448.63;2110447;27;46427;-59
2023/09/22 04:08:16;;;;;;;;;1.00;0.00;;;;;20.29;100.00;99446.91;2112343;27;46349;-59
2023/09/22 04:09:17;;;;;;;;;1.00;0.00;;;;;20.29;100.00;99452.31;2114048;27;45167;-57
2023/09/22 04:10:17;;;;;;;;;0.00;0.00;;;;;20.28;100.00;99452.44;2112392;27;46459;-58
2023/09/22 04:11:17;;;;;;;;;0.00;0.00;;;;;20.36;100.00;99451.81;2107718;27;46275;-59
2023/09/22 04:12:18;;;;;;;;;0.00;0.00;;;;;20.35;100.00;99452.81;2105610;28;46516;-60
2023/09/22 04:13:18;;;;;;;;;0.00;0.00;;;;;20.32;100.00;99456.59;2114415;27;46282;-59
2023/09/22 04:14:20;;;;;;;;;0.00;0.00;;;;;20.29;100.00;99446.06;2113695;27;46307;-59
2023/09/22 04:15:22;;;;;;;;;0.00;0.00;;;;;20.29;100.00;99451.44;2106926;27;46486;-60
2023/09/22 04:16:23;;;;;;;;;0.00;0.00;;;;;20.28;100.00;99444.34;2113955;27;46613;-59
2023/09/22 04:17:24;;;;;;;;;0.00;0.00;;;;;20.26;100.00;99447.19;2114052;27;46815;-61
2023/09/22 04:18:29;;;;;;;;;0.00;0.00;;;;;20.24;100.00;99446.44;2113451;27;46201;-61
2023/09/22 04:19:33;;;;;;;;;0.00;0.00;;;;;20.25;100.00;99448.16;2114281;27;46541;-61
2023/09/22 04:20:37;;;;;;;;;1.00;0.75;;;;;20.24;100.00;99454.53;2114221;27;46744;-61
2023/09/22 04:21:44;;;;;;;;;0.00;0.00;;;;;20.21;100.00;99444.03;2114517;27;46488;-61
2023/09/22 04:22:44;;;;;;;;;0.00;0.00;;;;;20.18;100.00;99443.38;2105825;27;46604;-61
2023/09/22 04:23:50;;;;;;;;;1.00;1.00;;;;;20.16;100.00;99450.75;2100546;28;45881;-60
2023/09/22 04:24:59;;;;;;;;;0.00;0.00;;;;;20.15;100.00;99440.94;2097564;28;46468;-60
2023/09/22 04:26:02;;;;;;;;;0.00;0.00;;;;;20.14;100.00;99441.94;2114255;27;46418;-60
2023/09/22 04:27:09;;;;;;;;;0.00;0.00;;;;;20.10;100.00;99452.13;2113558;27;46353;-59
2023/09/22 04:28:11;;;;;;;;;0.25;0.25;;;;;20.08;100.00;99445.16;2105570;28;46436;-59
2023/09/22 04:29:11;;;;;;;;;0.75;0.75;;;;;20.10;100.00;99441.34;2106265;27;46796;-61
2023/09/22 04:30:16;;;;;;;;;0.00;0.00;;;;;20.10;100.00;99457.50;2114542;27;46453;-60
2023/09/22 04:31:16;;;;;;;;;0.00;0.00;;;;;20.12;100.00;99449.28;2114180;27;46805;-60
2023/09/22 04:32:16;;;;;;;;;0.00;0.00;;;;;20.14;100.00;99442.78;2107596;27;46697;-60
2023/09/22 04:33:17;;;;;;;;;0.00;0.00;;;;;20.17;100.00;99447.06;2108725;27;46226;-60
2023/09/22 04:34:19;;;;;;;;;0.00;0.00;;;;;20.18;100.00;99444.25;2111074;27;46469;-60
2023/09/22 04:35:20;;;;;;;;;1.00;1.00;;;;;20.18;100.00;99435.31;2105894;27;48228;-58
2023/09/22 04:36:22;;;;;;;;;1.50;1.00;;;;;20.18;100.00;99448.78;2114320;27;46501;-60
2023/09/22 04:37:23;;;;;;;;;0.00;0.00;;;;;20.27;100.00;99442.66;2114178;27;46187;-60
2023/09/22 04:38:23;;;;;;;;;0.75;0.00;;;;;20.27;100.00;99438.13;2105231;28;45708;-60
2023/09/22 04:39:24;;;;;;;;;0.00;0.00;;;;;20.31;100.00;99443.25;2105207;28;46386;-59
2023/09/22 04:40:28;;;;;;;;;0.00;0.00;;;;;20.20;100.00;99442.31;2114392;27;45155;-60
2023/09/22 04:41:29;;;;;;;;;1.00;0.00;;;;;20.17;100.00;99433.59;2113907;27;47203;-60
2023/09/22 04:42:30;;;;;;;;;0.00;0.00;;;;;20.24;100.00;99432.97;2113036;27;46243;-60
2023/09/22 04:43:30;;;;;;;;;0.00;0.00;;;;;20.31;100.00;99440.53;2114152;27;46111;-60